Time;durP1;ratioP1;P1;durP2;ratioP2;P2;SDS_P1;SDS_P2;PMS_P1;PMS_P2;Temp;Humidity;BMP_temperature;BMP_pressure;BME280_temperature;BME280_humidity;BME280_pressure;Samples;Min_cycle;Max_cycle;Signal;HPM_P1;HPM_P2
2022/04/25 00:01:15;;;;;;;6.73;6.00;;;;;;;;;;4969389;28;20205;-59
2022/04/25 00:03:42;;;;;;;6.33;5.73;;;;;;;;;;4969343;28;20472;-59
2022/04/25 00:06:10;;;;;;;8.13;6.13;;;;;;;;;;4969035;28;20222;-58
2022/04/25 00:08:38;;;;;;;6.63;5.97;;;;;;;;;;4968814;28;20239;-59
2022/04/25 00:11:05;;;;;;;7.53;6.37;;;;;;;;;;4969159;28;20301;-58
2022/04/25 00:13:32;;;;;;;6.90;5.83;;;;;;;;;;4968986;28;20213;-58
2022/04/25 00:15:59;;;;;;;7.77;6.33;;;;;;;;;;4968883;28;20203;-58
2022/04/25 00:18:26;;;;;;;6.27;5.67;;;;;;;;;;4968201;28;20230;-59
2022/04/25 00:20:55;;;;;;;6.57;5.77;;;;;;;;;;4968894;28;20209;-59
2022/04/25 00:23:23;;;;;;;7.90;6.70;;;;;;;;;;4968293;28;20206;-59
2022/04/25 00:25:50;;;;;;;6.30;5.70;;;;;;;;;;4968837;28;20211;-58
2022/04/25 00:28:17;;;;;;;6.00;5.40;;;;;;;;;;4968006;28;20214;-58
2022/04/25 00:30:44;;;;;;;6.83;6.00;;;;;;;;;;4968639;28;20202;-58
2022/04/25 00:33:11;;;;;;;7.27;5.80;;;;;;;;;;4968121;28;20210;-59
2022/04/25 00:35:38;;;;;;;5.63;5.13;;;;;;;;;;4968985;28;20214;-58
2022/04/25 00:38:05;;;;;;;6.87;5.60;;;;;;;;;;4968906;28;20214;-59
2022/04/25 00:40:34;;;;;;;6.20;5.63;;;;;;;;;;4968865;28;20579;-58
2022/04/25 00:43:01;;;;;;;6.33;5.73;;;;;;;;;;4968568;28;20202;-59
2022/04/25 00:45:28;;;;;;;6.70;5.50;;;;;;;;;;4968100;28;20214;-59
2022/04/25 00:47:55;;;;;;;8.83;6.17;;;;;;;;;;4968332;28;20203;-58
2022/04/25 00:50:22;;;;;;;13.70;8.57;;;;;;;;;;4968617;28;20210;-59
2022/04/25 00:52:50;;;;;;;14.23;8.03;;;;;;;;;;4968652;28;20220;-59
2022/04/25 00:55:17;;;;;;;12.30;8.10;;;;;;;;;;4969085;28;20210;-58
2022/04/25 00:57:46;;;;;;;9.17;6.93;;;;;;;;;;4969337;28;20211;-59
2022/04/25 01:00:14;;;;;;;6.83;6.13;;;;;;;;;;4968489;28;20230;-59
2022/04/25 01:02:41;;;;;;;6.43;5.90;;;;;;;;;;4968821;28;20206;-59
2022/04/25 01:05:09;;;;;;;7.17;6.47;;;;;;;;;;4968311;28;20241;-59
2022/04/25 01:07:37;;;;;;;6.57;5.70;;;;;;;;;;4968464;28;20668;-59
2022/04/25 01:10:04;;;;;;;6.13;5.30;;;;;;;;;;4969371;28;20217;-58
2022/04/25 01:12:31;;;;;;;7.03;5.77;;;;;;;;;;4968897;28;20260;-59
2022/04/25 01:15:01;;;;;;;6.50;5.90;;;;;;;;;;4968875;28;20214;-59
2022/04/25 01:17:28;;;;;;;6.30;5.60;;;;;;;;;;4969016;28;20210;-59
2022/04/25 01:19:55;;;;;;;6.53;5.50;;;;;;;;;;4968601;28;20222;-59
2022/04/25 01:22:25;;;;;;;6.77;6.07;;;;;;;;;;4968759;28;20506;-59
2022/04/25 01:27:39;;;;;;;6.10;5.50;;;;;;;;;;4968471;28;20612;-58
2022/04/25 01:30:09;;;;;;;6.13;5.47;;;;;;;;;;4968730;28;20233;-58
2022/04/25 01:32:36;;;;;;;6.47;5.80;;;;;;;;;;4968104;28;20210;-58
2022/04/25 01:35:03;;;;;;;6.57;5.97;;;;;;;;;;4968480;28;20211;-58
2022/04/25 01:37:31;;;;;;;6.70;5.80;;;;;;;;;;4968829;28;20214;-58
2022/04/25 01:39:59;;;;;;;6.70;5.87;;;;;;;;;;4969880;28;20222;-58
2022/04/25 01:42:26;;;;;;;6.57;5.80;;;;;;;;;;4972408;28;20218;-61
2022/04/25 01:44:53;;;;;;;11.17;5.57;;;;;;;;;;4971380;28;20633;-58
2022/04/25 01:47:20;;;;;;;7.77;5.80;;;;;;;;;;4971653;28;20214;-59
2022/04/25 01:49:48;;;;;;;8.17;5.97;;;;;;;;;;4972480;28;20258;-58
2022/04/25 01:52:18;;;;;;;7.20;6.17;;;;;;;;;;4969370;28;20207;-59
2022/04/25 01:54:45;;;;;;;6.47;5.87;;;;;;;;;;4965548;28;20545;-58
2022/04/25 01:57:13;;;;;;;6.13;5.53;;;;;;;;;;4971061;28;20210;-58
2022/04/25 01:59:40;;;;;;;9.33;6.47;;;;;;;;;;4971719;28;20571;-58
2022/04/25 02:02:08;;;;;;;8.97;6.20;;;;;;;;;;4972399;28;20210;-58
2022/04/25 02:04:35;;;;;;;6.43;5.83;;;;;;;;;;4971712;28;20606;-58
2022/04/25 02:07:02;;;;;;;6.20;5.53;;;;;;;;;;4972126;28;20221;-58
2022/04/25 02:09:29;;;;;;;8.10;6.30;;;;;;;;;;4971613;28;20238;-58
2022/04/25 02:11:56;;;;;;;7.40;6.60;;;;;;;;;;4964191;28;20624;-58
2022/04/25 02:14:24;;;;;;;6.37;5.73;;;;;;;;;;4963107;28;20210;-59
2022/04/25 02:16:51;;;;;;;7.17;6.47;;;;;;;;;;4971552;28;20293;-58
2022/04/25 02:19:18;;;;;;;8.27;6.87;;;;;;;;;;4971551;28;20547;-58
2022/04/25 02:21:45;;;;;;;8.53;6.57;;;;;;;;;;4971888;28;20584;-59
2022/04/25 02:24:12;;;;;;;8.10;6.43;;;;;;;;;;4971823;28;20206;-60
2022/04/25 02:26:39;;;;;;;7.53;6.70;;;;;;;;;;4971608;28;20605;-59
2022/04/25 02:29:06;;;;;;;7.90;7.10;;;;;;;;;;4971416;28;20214;-58
2022/04/25 02:31:35;;;;;;;7.10;6.37;;;;;;;;;;4971563;28;20226;-59
2022/04/25 02:34:02;;;;;;;7.80;6.60;;;;;;;;;;4971693;28;20254;-58
2022/04/25 02:36:29;;;;;;;7.10;6.40;;;;;;;;;;4971920;28;20214;-58
2022/04/25 02:38:56;;;;;;;10.00;7.13;;;;;;;;;;4970609;28;20202;-58
2022/04/25 02:41:23;;;;;;;10.97;6.90;;;;;;;;;;4971840;28;20518;-58
2022/04/25 02:43:50;;;;;;;9.17;6.53;;;;;;;;;;4970812;28;20206;-59
2022/04/25 02:46:17;;;;;;;10.50;7.00;;;;;;;;;;4971746;28;20755;-58
2022/04/25 02:48:46;;;;;;;8.87;6.27;;;;;;;;;;4971240;28;20627;-58
2022/04/25 02:51:14;;;;;;;8.60;6.17;;;;;;;;;;4970891;28;20260;-58
2022/04/25 02:53:41;;;;;;;9.30;7.00;;;;;;;;;;4970738;28;20213;-58
2022/04/25 02:56:08;;;;;;;8.50;6.83;;;;;;;;;;4971392;28;20218;-59
2022/04/25 02:58:36;;;;;;;7.57;6.70;;;;;;;;;;4970822;28;20207;-59
2022/04/25 03:01:04;;;;;;;9.43;7.13;;;;;;;;;;4971015;28;20736;-58
2022/04/25 03:03:32;;;;;;;8.53;6.90;;;;;;;;;;4970937;28;20305;-58
2022/04/25 03:06:01;;;;;;;8.97;7.03;;;;;;;;;;4971119;28;20939;-58
2022/04/25 03:08:28;;;;;;;10.17;7.20;;;;;;;;;;4970183;28;20242;-58
2022/04/25 03:10:56;;;;;;;8.57;6.33;;;;;;;;;;4970627;28;20202;-58
2022/04/25 03:13:25;;;;;;;7.17;5.77;;;;;;;;;;4970116;28;20218;-59
2022/04/25 03:15:52;;;;;;;8.43;5.80;;;;;;;;;;4963338;28;20527;-58
2022/04/25 03:18:19;;;;;;;6.87;6.13;;;;;;;;;;4967706;28;20218;-58
2022/04/25 03:20:48;;;;;;;8.07;6.30;;;;;;;;;;4965406;28;20273;-58
2022/04/25 03:23:17;;;;;;;6.43;5.80;;;;;;;;;;4970502;28;20249;-59
2022/04/25 03:25:44;;;;;;;7.07;5.63;;;;;;;;;;4970346;28;20250;-58
2022/04/25 03:28:11;;;;;;;7.33;6.47;;;;;;;;;;4970472;28;20229;-59
2022/04/25 03:30:38;;;;;;;7.80;6.17;;;;;;;;;;4970528;28;20210;-59
2022/04/25 03:33:05;;;;;;;7.53;6.50;;;;;;;;;;4969884;28;20265;-58
2022/04/25 03:35:32;;;;;;;8.83;5.93;;;;;;;;;;4970318;28;20210;-59
2022/04/25 03:38:00;;;;;;;9.00;6.30;;;;;;;;;;4970553;28;20670;-58
2022/04/25 03:40:28;;;;;;;8.03;6.43;;;;;;;;;;4969727;28;20237;-59
2022/04/25 03:42:55;;;;;;;8.40;6.40;;;;;;;;;;4967325;28;20261;-58
2022/04/25 03:45:23;;;;;;;8.07;6.23;;;;;;;;;;4968844;28;20210;-59
2022/04/25 03:47:50;;;;;;;7.37;6.43;;;;;;;;;;4969013;28;20598;-58
2022/04/25 03:50:17;;;;;;;8.80;6.23;;;;;;;;;;4969158;28;20211;-59
2022/04/25 03:52:45;;;;;;;9.47;6.97;;;;;;;;;;4959971;28;20207;-58
2022/04/25 03:58:00;;;;;;;8.37;6.60;;;;;;;;;;4959448;28;20217;-58
2022/04/25 04:00:27;;;;;;;7.10;6.40;;;;;;;;;;4965616;28;20230;-59
2022/04/25 04:02:54;;;;;;;11.80;6.70;;;;;;;;;;4967344;28;20210;-58
2022/04/25 04:05:21;;;;;;;7.73;6.20;;;;;;;;;;4969028;28;20226;-58
2022/04/25 04:07:49;;;;;;;7.00;6.03;;;;;;;;;;4971354;28;20249;-59
2022/04/25 04:10:18;;;;;;;6.93;6.20;;;;;;;;;;4983019;28;20443;-58
2022/04/25 04:12:46;;;;;;;8.50;6.63;;;;;;;;;;4975413;28;20289;-58
2022/04/25 04:15:15;;;;;;;7.30;6.40;;;;;;;;;;4976534;28;20570;-58
2022/04/25 04:17:42;;;;;;;8.50;6.30;;;;;;;;;;4988080;28;20286;-58
2022/04/25 04:20:11;;;;;;;8.27;6.07;;;;;;;;;;4984635;28;20232;-58
2022/04/25 04:22:38;;;;;;;8.90;6.83;;;;;;;;;;4980239;28;20240;-58
2022/04/25 04:25:08;;;;;;;11.63;6.93;;;;;;;;;;4982413;28;20210;-59
2022/04/25 04:27:35;;;;;;;9.03;7.20;;;;;;;;;;4983571;28;20241;-58
2022/04/25 04:30:02;;;;;;;11.83;7.57;;;;;;;;;;4973336;28;20332;-58
2022/04/25 04:32:31;;;;;;;10.27;7.50;;;;;;;;;;4969201;28;20676;-58
2022/04/25 04:34:59;;;;;;;12.23;7.40;;;;;;;;;;4980791;28;20760;-58
2022/04/25 04:37:26;;;;;;;9.37;7.33;;;;;;;;;;4984098;28;20561;-57
2022/04/25 04:40:28;;;;;;;9.27;7.13;;;;;;;;;;4978208;28;20778;-57
2022/04/25 04:42:41;;;;;;;16.90;7.90;;;;;;;;;;4956100;28;20875;-57
2022/04/25 04:45:08;;;;;;;10.40;7.57;;;;;;;;;;4971517;28;20211;-58
2022/04/25 04:47:38;;;;;;;9.93;7.93;;;;;;;;;;4968580;28;20249;-58
2022/04/25 04:50:06;;;;;;;9.83;7.30;;;;;;;;;;4968714;28;20285;-58
2022/04/25 04:52:33;;;;;;;9.30;7.67;;;;;;;;;;4968822;28;20360;-58
2022/04/25 04:55:00;;;;;;;12.37;8.27;;;;;;;;;;4969155;28;20214;-58
2022/04/25 04:57:27;;;;;;;9.00;7.27;;;;;;;;;;4969711;28;20217;-58
2022/04/25 04:59:54;;;;;;;10.50;7.43;;;;;;;;;;4968122;28;20293;-58
2022/04/25 05:02:21;;;;;;;11.13;8.07;;;;;;;;;;4969859;28;20222;-57
2022/04/25 05:04:49;;;;;;;13.03;8.83;;;;;;;;;;4970252;28;20245;-60
2022/04/25 05:07:16;;;;;;;11.10;8.20;;;;;;;;;;4980620;28;20297;-57
2022/04/25 05:09:43;;;;;;;12.03;8.13;;;;;;;;;;4968643;28;20246;-60
2022/04/25 05:12:11;;;;;;;10.70;7.77;;;;;;;;;;4967353;28;20567;-56
2022/04/25 05:14:38;;;;;;;13.93;8.23;;;;;;;;;;4965567;28;20704;-61
2022/04/25 05:17:05;;;;;;;10.57;8.07;;;;;;;;;;4968178;28;20205;-57
2022/04/25 05:19:32;;;;;;;12.30;8.37;;;;;;;;;;4968222;28;20830;-59
2022/04/25 05:22:00;;;;;;;10.07;7.77;;;;;;;;;;4966087;28;20233;-60
2022/04/25 05:24:28;;;;;;;9.37;7.53;;;;;;;;;;4967946;28;20206;-58
2022/04/25 05:26:55;;;;;;;10.47;7.80;;;;;;;;;;4966328;28;20700;-58
2022/04/25 05:29:22;;;;;;;8.93;7.70;;;;;;;;;;4967161;28;20207;-58
2022/04/25 05:31:50;;;;;;;12.10;7.93;;;;;;;;;;4967813;28;20261;-58
2022/04/25 05:34:18;;;;;;;11.73;8.67;;;;;;;;;;4962348;28;20246;-58
2022/04/25 05:36:46;;;;;;;10.73;8.00;;;;;;;;;;4962733;28;20203;-58
2022/04/25 05:39:14;;;;;;;10.07;8.23;;;;;;;;;;4966607;28;20269;-58
2022/04/25 05:41:42;;;;;;;12.20;8.77;;;;;;;;;;4966714;28;20293;-58
2022/04/25 05:44:10;;;;;;;12.10;8.37;;;;;;;;;;4967057;28;20206;-58
2022/04/25 05:46:37;;;;;;;9.67;7.67;;;;;;;;;;4965806;28;20214;-58
2022/04/25 05:54:32;;;;;;;12.47;8.53;;;;;;;;;;4962427;28;20203;-58
2022/04/25 05:56:59;;;;;;;13.73;8.17;;;;;;;;;;4960180;28;20646;-58
2022/04/25 05:59:29;;;;;;;11.80;9.03;;;;;;;;;;4960525;28;20214;-59
2022/04/25 06:01:56;;;;;;;12.77;8.37;;;;;;;;;;4948064;29;20242;-58
2022/04/25 06:04:23;;;;;;;12.37;8.93;;;;;;;;;;4947927;29;20226;-58
2022/04/25 06:06:50;;;;;;;12.47;9.17;;;;;;;;;;4947952;29;20237;-59
2022/04/25 06:09:19;;;;;;;13.83;9.40;;;;;;;;;;4947965;29;20243;-58
2022/04/25 06:11:49;;;;;;;12.60;9.33;;;;;;;;;;4948401;29;20214;-58
2022/04/25 06:14:16;;;;;;;13.73;9.97;;;;;;;;;;4947976;29;20237;-59
2022/04/25 06:16:43;;;;;;;14.27;9.63;;;;;;;;;;4947778;29;20788;-59
2022/04/25 06:19:10;;;;;;;15.20;9.57;;;;;;;;;;4947794;29;20282;-59
2022/04/25 06:21:37;;;;;;;12.13;8.83;;;;;;;;;;4948012;29;20533;-59
2022/04/25 06:24:04;;;;;;;12.73;8.90;;;;;;;;;;4947626;29;20632;-59
2022/04/25 06:26:34;;;;;;;10.30;8.30;;;;;;;;;;4948727;28;20215;-58
2022/04/25 06:29:03;;;;;;;16.17;10.33;;;;;;;;;;4967522;28;20231;-59
2022/04/25 06:31:30;;;;;;;13.87;9.67;;;;;;;;;;4970624;28;20242;-59
2022/04/25 06:33:58;;;;;;;13.93;9.73;;;;;;;;;;4970750;28;20215;-59
2022/04/25 06:36:25;;;;;;;12.80;9.07;;;;;;;;;;4970188;28;20214;-59
2022/04/25 06:38:52;;;;;;;15.47;10.20;;;;;;;;;;4970513;28;20827;-59
2022/04/25 06:41:21;;;;;;;13.60;9.97;;;;;;;;;;4970518;28;20234;-59
2022/04/25 06:43:48;;;;;;;13.67;9.97;;;;;;;;;;4970800;28;20241;-59
2022/04/25 06:46:16;;;;;;;13.83;9.93;;;;;;;;;;4970222;28;20672;-59
2022/04/25 06:49:19;;;;;;;16.43;10.47;;;;;;;;;;4970718;28;20308;-59
2022/04/25 06:51:31;;;;;;;15.17;10.80;;;;;;;;;;4970470;28;20210;-59
2022/04/25 06:54:00;;;;;;;14.10;10.30;;;;;;;;;;4970438;28;20285;-59
2022/04/25 06:56:27;;;;;;;11.03;7.97;;;;;;;;;;4970141;28;20329;-59
2022/04/25 06:58:54;;;;;;;13.77;9.63;;;;;;;;;;4970095;28;20222;-59
2022/04/25 07:01:22;;;;;;;14.20;9.87;;;;;;;;;;4970355;28;20234;-59
2022/04/25 07:03:49;;;;;;;12.87;9.27;;;;;;;;;;4970605;28;20269;-59
2022/04/25 07:06:16;;;;;;;12.97;9.40;;;;;;;;;;4970620;28;20289;-58
2022/04/25 07:08:43;;;;;;;10.93;9.07;;;;;;;;;;4970455;28;20250;-58
2022/04/25 07:11:10;;;;;;;11.20;9.50;;;;;;;;;;4970231;28;20219;-58
2022/04/25 07:13:41;;;;;;;13.20;9.47;;;;;;;;;;4970263;28;20214;-58
2022/04/25 07:16:08;;;;;;;14.03;8.97;;;;;;;;;;4969463;28;20218;-59
2022/04/25 07:18:37;;;;;;;13.10;8.67;;;;;;;;;;4969446;28;20557;-59
2022/04/25 07:28:48;;;;;;;11.67;7.73;;;;;;;;;;4969733;28;20234;-58
2022/04/25 07:29:22;;;;;;;11.90;8.33;;;;;;;;;;4969729;28;20293;-57
2022/04/25 07:31:51;;;;;;;10.67;7.20;;;;;;;;;;4969413;28;20214;-57
2022/04/25 07:34:19;;;;;;;11.13;7.73;;;;;;;;;;4969694;28;20210;-57
2022/04/25 07:36:51;;;;;;;10.70;8.03;;;;;;;;;;4969273;28;20222;-57
2022/04/25 07:39:18;;;;;;;8.93;6.93;;;;;;;;;;4969483;28;20225;-57
2022/04/25 07:41:45;;;;;;;8.30;6.73;;;;;;;;;;4968666;28;20230;-57
2022/04/25 07:44:12;;;;;;;8.77;7.23;;;;;;;;;;4968634;28;20218;-57
2022/04/25 07:46:40;;;;;;;8.93;7.23;;;;;;;;;;4968642;28;20211;-57
2022/04/25 07:49:07;;;;;;;7.07;6.13;;;;;;;;;;4968516;28;20241;-57
2022/04/25 07:51:36;;;;;;;9.60;7.43;;;;;;;;;;4968205;28;20301;-60
2022/04/25 07:54:04;;;;;;;7.47;6.53;;;;;;;;;;4968425;28;20218;-57
2022/04/25 07:56:32;;;;;;;6.47;5.87;;;;;;;;;;4968627;28;20218;-57
2022/04/25 07:59:00;;;;;;;5.67;5.17;;;;;;;;;;4968669;28;20302;-57
2022/04/25 08:01:27;;;;;;;6.00;5.40;;;;;;;;;;4968084;28;20332;-58
2022/04/25 08:03:54;;;;;;;6.70;5.67;;;;;;;;;;4968124;28;20214;-57
2022/04/25 08:06:21;;;;;;;11.63;5.87;;;;;;;;;;4967932;28;20297;-57
2022/04/25 08:08:49;;;;;;;5.43;4.93;;;;;;;;;;4968251;28;20711;-57
2022/04/25 08:11:16;;;;;;;5.90;5.40;;;;;;;;;;4968549;28;20214;-57
2022/04/25 08:19:14;;;;;;;5.50;4.97;;;;;;;;;;4968151;28;20233;-57
2022/04/25 08:21:41;;;;;;;5.47;4.93;;;;;;;;;;4968910;28;20324;-58
2022/04/25 08:24:09;;;;;;;5.83;5.30;;;;;;;;;;4969137;28;20253;-58
2022/04/25 08:26:36;;;;;;;6.00;5.23;;;;;;;;;;4968547;28;20219;-57
2022/04/25 08:29:04;;;;;;;7.18;6.03;;;;;;;;;;4968510;28;20706;-58
2022/04/25 08:31:31;;;;;;;5.23;4.73;;;;;;;;;;4968597;28;20207;-57
2022/04/25 08:33:58;;;;;;;8.33;5.27;;;;;;;;;;4968902;28;20217;-58
2022/04/25 08:36:26;;;;;;;5.13;4.72;;;;;;;;;;4968643;28;20210;-58
2022/04/25 08:38:53;;;;;;;5.70;4.93;;;;;;;;;;4968796;28;20214;-58
2022/04/25 08:41:22;;;;;;;5.70;4.90;;;;;;;;;;4968156;28;20229;-57
2022/04/25 08:43:51;;;;;;;4.43;4.03;;;;;;;;;;4968560;28;20273;-58
2022/04/25 08:46:21;;;;;;;5.25;4.75;;;;;;;;;;4968625;28;20310;-58
2022/04/25 08:48:48;;;;;;;6.00;4.47;;;;;;;;;;4968835;28;20210;-58
2022/04/25 08:51:16;;;;;;;5.68;4.75;;;;;;;;;;4968503;28;20673;-58
2022/04/25 08:53:43;;;;;;;5.60;5.15;;;;;;;;;;4968882;28;20218;-58
2022/04/25 08:56:12;;;;;;;5.63;5.13;;;;;;;;;;4968278;28;20214;-58
2022/04/25 08:58:41;;;;;;;6.53;5.15;;;;;;;;;;4968008;28;20903;-62
2022/04/25 09:01:10;;;;;;;5.50;5.00;;;;;;;;;;4960049;28;20773;-59
2022/04/25 09:03:37;;;;;;;5.00;4.60;;;;;;;;;;4951727;28;20222;-57
2022/04/25 09:06:06;;;;;;;5.13;4.63;;;;;;;;;;4968218;28;20253;-59
2022/04/25 09:08:33;;;;;;;5.07;4.68;;;;;;;;;;4976899;28;20265;-60
2022/04/25 09:12:09;;;;;;;5.38;4.88;;;;;;;;;;4972408;28;20297;-58
2022/04/25 09:13:49;;;;;;;5.50;5.03;;;;;;;;;;4987452;28;20517;-59
2022/04/25 09:16:17;;;;;;;5.20;4.70;;;;;;;;;;4986445;28;20213;-58
2022/04/25 09:18:44;;;;;;;6.77;5.13;;;;;;;;;;4985520;28;20211;-58
2022/04/25 09:21:14;;;;;;;5.20;4.80;;;;;;;;;;4988036;28;20210;-58
2022/04/25 09:23:41;;;;;;;5.47;5.00;;;;;;;;;;4986480;28;20210;-58
2022/04/25 09:26:11;;;;;;;4.93;4.05;;;;;;;;;;4987856;28;20221;-58
2022/04/25 09:28:50;;;;;;;4.85;4.55;;;;;;;;;;4977007;28;20225;-58
2022/04/25 09:31:17;;;;;;;5.15;4.65;;;;;;;;;;4988048;28;20217;-62
2022/04/25 09:33:44;;;;;;;5.07;4.57;;;;;;;;;;4986361;28;20658;-58
2022/04/25 09:36:12;;;;;;;4.13;3.92;;;;;;;;;;4974120;28;20215;-63
2022/04/25 09:38:39;;;;;;;4.32;4.03;;;;;;;;;;4968506;28;20218;-66
2022/04/25 09:41:07;;;;;;;3.90;3.65;;;;;;;;;;4968545;28;20225;-58
2022/04/25 09:43:35;;;;;;;3.80;3.60;;;;;;;;;;4965302;28;20210;-59
2022/04/25 09:46:05;;;;;;;4.15;3.88;;;;;;;;;;4986336;28;20213;-59
2022/04/25 09:48:32;;;;;;;4.38;4.07;;;;;;;;;;4987531;28;20212;-62
2022/04/25 09:50:59;;;;;;;4.53;4.22;;;;;;;;;;4968536;28;20226;-60
2022/04/25 09:53:40;;;;;;;4.55;4.25;;;;;;;;;;4980878;28;20202;-60
2022/04/25 09:56:11;;;;;;;4.97;4.35;;;;;;;;;;4987361;28;20304;-59
2022/04/25 09:58:39;;;;;;;4.80;4.50;;;;;;;;;;4971152;28;20225;-59
2022/04/25 10:01:13;;;;;;;4.97;4.28;;;;;;;;;;4968101;28;20210;-59
2022/04/25 10:03:40;;;;;;;6.05;3.80;;;;;;;;;;4974412;28;20210;-60
2022/04/25 10:06:08;;;;;;;4.32;4.00;;;;;;;;;;4969910;28;20313;-60
2022/04/25 10:08:36;;;;;;;5.28;4.30;;;;;;;;;;4986005;28;20245;-59
2022/04/25 10:11:04;;;;;;;4.80;4.50;;;;;;;;;;4987947;28;20214;-60
2022/04/25 10:13:32;;;;;;;4.18;3.88;;;;;;;;;;4971028;28;20209;-60
2022/04/25 10:16:00;;;;;;;5.18;4.60;;;;;;;;;;4970704;28;20292;-61
2022/04/25 10:18:30;;;;;;;4.05;3.78;;;;;;;;;;4974751;28;20222;-60
2022/04/25 10:20:57;;;;;;;4.45;4.13;;;;;;;;;;4971483;28;20217;-59
2022/04/25 10:23:25;;;;;;;4.97;4.47;;;;;;;;;;4962911;28;20234;-60
2022/04/25 10:25:54;;;;;;;4.13;3.85;;;;;;;;;;4956897;28;20759;-60
2022/04/25 10:28:27;;;;;;;4.40;4.10;;;;;;;;;;4970685;28;20297;-60
2022/04/25 10:30:58;;;;;;;5.28;4.07;;;;;;;;;;4971385;28;20329;-59
2022/04/25 10:33:26;;;;;;;4.47;4.18;;;;;;;;;;4965781;28;20211;-59
2022/04/25 10:35:54;;;;;;;4.05;3.85;;;;;;;;;;4951633;29;20226;-60
2022/04/25 10:38:49;;;;;;;4.63;4.22;;;;;;;;;;4959273;28;20206;-60
2022/04/25 10:44:12;;;;;;;4.70;4.30;;;;;;;;;;4972612;28;20214;-59
2022/04/25 10:46:54;;;;;;;4.88;4.47;;;;;;;;;;4975932;28;20214;-59
2022/04/25 10:49:28;;;;;;;4.13;3.83;;;;;;;;;;4970348;28;20218;-60
2022/04/25 10:51:56;;;;;;;4.30;4.10;;;;;;;;;;4971822;28;20321;-59
2022/04/25 10:54:27;;;;;;;4.28;3.97;;;;;;;;;;4970469;28;20221;-59
2022/04/25 10:57:14;;;;;;;4.60;4.28;;;;;;;;;;4973426;28;20210;-59
2022/04/25 10:59:41;;;;;;;4.05;3.85;;;;;;;;;;4951467;29;20207;-60
2022/04/25 11:02:21;;;;;;;3.83;3.53;;;;;;;;;;4963911;28;20293;-59
2022/04/25 11:04:49;;;;;;;3.95;3.65;;;;;;;;;;4970099;28;20276;-59
2022/04/25 11:07:25;;;;;;;6.03;4.30;;;;;;;;;;4970558;28;20214;-59
2022/04/25 11:09:52;;;;;;;4.38;4.07;;;;;;;;;;4970371;28;20250;-59
2022/04/25 11:12:20;;;;;;;4.18;3.88;;;;;;;;;;4970214;28;20681;-60
2022/04/25 11:14:59;;;;;;;5.35;4.85;;;;;;;;;;4969388;28;20333;-59
2022/04/25 11:17:26;;;;;;;4.90;4.43;;;;;;;;;;4969822;28;20253;-59
2022/04/25 11:19:55;;;;;;;4.05;3.85;;;;;;;;;;4969402;28;20218;-59
2022/04/25 11:22:46;;;;;;;4.45;3.97;;;;;;;;;;4969973;28;20316;-59
2022/04/25 11:25:32;;;;;;;5.15;4.65;;;;;;;;;;4952111;28;20226;-59
2022/04/25 11:28:04;;;;;;;5.53;4.95;;;;;;;;;;4969905;28;20225;-59
2022/04/25 11:30:31;;;;;;;4.75;4.40;;;;;;;;;;4969825;28;20676;-61
2022/04/25 11:33:02;;;;;;;3.85;3.65;;;;;;;;;;4969210;28;20209;-59
2022/04/25 11:35:29;;;;;;;5.00;4.60;;;;;;;;;;4970270;28;20214;-61
2022/04/25 11:37:57;;;;;;;4.00;3.78;;;;;;;;;;4969664;28;20261;-61
2022/04/25 11:40:24;;;;;;;4.22;4.03;;;;;;;;;;4969928;28;20640;-58
2022/04/25 11:42:52;;;;;;;6.82;3.90;;;;;;;;;;4968671;28;20233;-59
2022/04/25 11:45:21;;;;;;;4.88;4.40;;;;;;;;;;4968757;28;20211;-59
2022/04/25 11:47:48;;;;;;;3.78;3.50;;;;;;;;;;4969568;28;20273;-59
2022/04/25 11:50:15;;;;;;;3.80;3.58;;;;;;;;;;4969408;28;20211;-59
2022/04/25 11:52:45;;;;;;;4.15;3.85;;;;;;;;;;4986624;28;20213;-59
2022/04/25 11:55:13;;;;;;;4.50;4.18;;;;;;;;;;4985369;28;20217;-60
2022/04/25 11:57:42;;;;;;;5.28;4.10;;;;;;;;;;4969298;28;20210;-59
2022/04/25 12:00:11;;;;;;;5.72;4.95;;;;;;;;;;4968542;28;20624;-61
2022/04/25 12:02:40;;;;;;;4.78;4.43;;;;;;;;;;4968833;28;20276;-62
2022/04/25 12:05:08;;;;;;;4.22;3.97;;;;;;;;;;4968181;28;20230;-60
2022/04/25 12:07:35;;;;;;;4.20;4.00;;;;;;;;;;4969064;28;20288;-62
2022/04/25 12:15:37;;;;;;;4.00;3.80;;;;;;;;;;4968026;28;20253;-59
2022/04/25 12:18:19;;;;;;;4.63;4.22;;;;;;;;;;4967337;28;20214;-60
2022/04/25 12:20:49;;;;;;;4.22;4.03;;;;;;;;;;4968667;28;20210;-60
2022/04/25 12:23:23;;;;;;;4.30;4.00;;;;;;;;;;4967040;28;20226;-60
2022/04/25 12:25:50;;;;;;;4.00;3.80;;;;;;;;;;4967295;28;20222;-59
2022/04/25 12:28:18;;;;;;;4.25;3.95;;;;;;;;;;4968361;28;20681;-59
2022/04/25 12:30:46;;;;;;;4.38;3.97;;;;;;;;;;4968100;28;20226;-58
2022/04/25 12:33:15;;;;;;;4.38;4.07;;;;;;;;;;4968330;28;20214;-59
2022/04/25 12:35:43;;;;;;;4.70;4.43;;;;;;;;;;4967686;28;20308;-58
2022/04/25 12:38:10;;;;;;;4.97;4.57;;;;;;;;;;4968499;28;20210;-61
2022/04/25 12:40:52;;;;;;;4.43;4.22;;;;;;;;;;4967028;28;20229;-61
2022/04/25 12:43:34;;;;;;;5.38;4.95;;;;;;;;;;4965336;28;20226;-61
2022/04/25 12:46:02;;;;;;;4.95;4.65;;;;;;;;;;4967822;28;20202;-59
2022/04/25 12:48:29;;;;;;;4.93;4.53;;;;;;;;;;4968115;28;20206;-59
2022/04/25 12:50:57;;;;;;;4.65;4.35;;;;;;;;;;4967859;28;20281;-59
2022/04/25 12:53:39;;;;;;;4.70;4.30;;;;;;;;;;4968159;28;20242;-59
2022/04/25 12:56:07;;;;;;;4.88;4.38;;;;;;;;;;4968011;28;20233;-60
2022/04/25 12:58:34;;;;;;;5.30;4.90;;;;;;;;;;4968271;28;20214;-63
2022/04/25 13:01:01;;;;;;;3.85;3.65;;;;;;;;;;4968787;28;20748;-60
2022/04/25 13:03:28;;;;;;;5.40;4.10;;;;;;;;;;4968408;28;20378;-60
2022/04/25 13:05:55;;;;;;;4.38;4.18;;;;;;;;;;4967192;28;20317;-60
2022/04/25 13:08:23;;;;;;;4.57;4.18;;;;;;;;;;4967030;28;20779;-60
2022/04/25 13:10:51;;;;;;;5.05;4.65;;;;;;;;;;4967976;28;20226;-59
2022/04/25 13:13:18;;;;;;;5.10;4.60;;;;;;;;;;4967315;28;20210;-59
2022/04/25 13:15:47;;;;;;;4.20;4.00;;;;;;;;;;4967225;28;20615;-59
2022/04/25 13:18:14;;;;;;;4.85;4.40;;;;;;;;;;4967818;28;20202;-59
2022/04/25 13:20:41;;;;;;;4.18;3.97;;;;;;;;;;4966579;28;20298;-59
2022/04/25 13:23:08;;;;;;;4.53;4.22;;;;;;;;;;4967402;28;20308;-65
2022/04/25 13:25:37;;;;;;;4.32;4.13;;;;;;;;;;4967246;28;20298;-59
2022/04/25 13:28:04;;;;;;;5.18;4.63;;;;;;;;;;4960996;28;20653;-59
2022/04/25 13:30:31;;;;;;;4.60;4.30;;;;;;;;;;4965184;28;20211;-58
2022/04/25 13:32:58;;;;;;;4.82;4.55;;;;;;;;;;4966301;28;20210;-59
2022/04/25 13:35:26;;;;;;;4.30;4.00;;;;;;;;;;4967078;28;20676;-59
2022/04/25 13:37:53;;;;;;;4.25;3.95;;;;;;;;;;4970199;28;20219;-61
2022/04/25 13:40:20;;;;;;;4.43;4.20;;;;;;;;;;4970206;28;20218;-61
2022/04/25 13:42:49;;;;;;;4.40;4.10;;;;;;;;;;4969842;28;20246;-59
2022/04/25 13:45:19;;;;;;;5.18;4.78;;;;;;;;;;4969882;28;20366;-59
2022/04/25 13:47:46;;;;;;;4.13;3.90;;;;;;;;;;4969833;28;20218;-60
2022/04/25 13:50:13;;;;;;;3.55;3.35;;;;;;;;;;4968949;28;20217;-59
2022/04/25 13:52:40;;;;;;;3.70;3.40;;;;;;;;;;4969609;28;20281;-59
2022/04/25 13:55:08;;;;;;;4.20;3.95;;;;;;;;;;4969251;28;20273;-59
2022/04/25 13:57:35;;;;;;;3.65;3.45;;;;;;;;;;4968684;28;20217;-59
2022/04/25 14:00:04;;;;;;;4.43;4.05;;;;;;;;;;4965683;28;20218;-59
2022/04/25 14:05:16;;;;;;;4.32;4.10;;;;;;;;;;4968111;28;20259;-59
2022/04/25 14:07:43;;;;;;;4.05;3.83;;;;;;;;;;4971107;28;20304;-59
2022/04/25 14:10:10;;;;;;;4.28;3.97;;;;;;;;;;4988442;28;20590;-59
2022/04/25 14:12:38;;;;;;;3.42;3.33;;;;;;;;;;4986904;28;20233;-58
2022/04/25 14:15:07;;;;;;;4.00;3.80;;;;;;;;;;4981679;28;20204;-59
2022/04/25 14:17:34;;;;;;;3.70;3.50;;;;;;;;;;4979059;28;20213;-59
2022/04/25 14:20:02;;;;;;;3.20;3.10;;;;;;;;;;4967460;28;20210;-59
2022/04/25 14:22:29;;;;;;;3.88;3.58;;;;;;;;;;4966979;28;20241;-59
2022/04/25 14:24:56;;;;;;;4.03;3.80;;;;;;;;;;4974986;28;20233;-59
2022/04/25 14:27:23;;;;;;;3.80;3.60;;;;;;;;;;4985692;28;20214;-59
2022/04/25 14:29:51;;;;;;;4.10;3.90;;;;;;;;;;4975994;28;20214;-59
2022/04/25 14:32:19;;;;;;;4.30;4.00;;;;;;;;;;4985641;28;20567;-59
2022/04/25 14:34:46;;;;;;;3.83;3.53;;;;;;;;;;4986614;28;20194;-59
2022/04/25 14:37:13;;;;;;;3.20;3.00;;;;;;;;;;4977291;28;20245;-59
2022/04/25 14:39:40;;;;;;;3.40;3.30;;;;;;;;;;4980169;28;20306;-59
2022/04/25 14:42:07;;;;;;;3.00;2.90;;;;;;;;;;4970122;28;20724;-59
2022/04/25 14:44:34;;;;;;;3.03;2.90;;;;;;;;;;4983026;28;20226;-64
2022/04/25 14:47:03;;;;;;;3.28;3.08;;;;;;;;;;4984199;28;20218;-59
2022/04/25 14:55:01;;;;;;;3.10;3.00;;;;;;;;;;4985824;28;20209;-59
2022/04/25 14:57:28;;;;;;;3.03;2.92;;;;;;;;;;4983606;28;20314;-59
2022/04/25 14:59:55;;;;;;;3.70;3.40;;;;;;;;;;4968751;28;20202;-60
2022/04/25 15:02:22;;;;;;;3.78;3.58;;;;;;;;;;4974067;28;20203;-59
2022/04/25 15:04:51;;;;;;;3.90;3.60;;;;;;;;;;4973832;28;20233;-59
2022/04/25 15:07:18;;;;;;;3.70;3.50;;;;;;;;;;4956432;28;20211;-59
2022/04/25 15:09:46;;;;;;;3.28;3.08;;;;;;;;;;4950845;28;20811;-59
2022/04/25 15:12:13;;;;;;;3.15;3.05;;;;;;;;;;4968072;28;20210;-60
2022/04/25 15:14:41;;;;;;;3.13;3.03;;;;;;;;;;4967009;28;20211;-60
2022/04/25 15:17:08;;;;;;;4.63;2.75;;;;;;;;;;4967798;28;20273;-60
2022/04/25 15:19:37;;;;;;;2.90;2.70;;;;;;;;;;4967646;28;20210;-59
2022/04/25 15:22:06;;;;;;;3.53;2.47;;;;;;;;;;4967843;28;20672;-59
2022/04/25 15:24:34;;;;;;;2.70;2.60;;;;;;;;;;4967610;28;20262;-59
2022/04/25 15:27:01;;;;;;;2.95;2.78;;;;;;;;;;4967775;28;20207;-59